createdAt,value
2019-04-21T00:00:44.710Z,11.40
2019-04-21T00:03:18.111Z,11.40
2019-04-21T00:06:04.631Z,11.40
2019-04-21T00:08:37.537Z,11.30
2019-04-21T00:11:12.422Z,11.30
2019-04-21T00:13:27.962Z,11.30
2019-04-21T00:15:53.181Z,11.30
2019-04-21T00:18:46.873Z,11.40
2019-04-21T00:21:15.218Z,11.40
2019-04-21T00:23:55.357Z,11.40
2019-04-21T00:26:23.804Z,11.40
2019-04-21T00:29:05.071Z,11.50
2019-04-21T00:31:24.763Z,11.50
2019-04-21T00:33:42.654Z,11.50
2019-04-21T00:36:15.936Z,11.50
2019-04-21T00:39:06.876Z,11.50
2019-04-21T00:41:29.859Z,11.60
2019-04-21T00:43:55.733Z,11.60
2019-04-21T00:46:29.257Z,11.60
2019-04-21T00:49:00.368Z,11.70
2019-04-21T00:51:40.509Z,11.70
2019-04-21T00:54:13.104Z,11.70
2019-04-21T00:56:45.529Z,11.70
2019-04-21T00:59:05.706Z,11.70
2019-04-21T01:01:38.050Z,11.70
2019-04-21T01:04:09.939Z,11.70
2019-04-21T01:06:43.488Z,11.80
2019-04-21T01:09:11.761Z,11.80
2019-04-21T01:11:44.244Z,11.80
2019-04-21T01:14:17.907Z,11.80
2019-04-21T01:16:48.142Z,11.80
2019-04-21T01:19:10.949Z,11.80
2019-04-21T01:21:20.959Z,11.90
2019-04-21T01:23:50.775Z,11.90
2019-04-21T01:26:32.767Z,11.90
2019-04-21T01:29:05.432Z,11.90
2019-04-21T01:31:37.590Z,11.90
2019-04-21T01:34:15.047Z,11.90
2019-04-21T01:36:38.633Z,12.00
2019-04-21T01:39:13.483Z,12.00
2019-04-21T01:41:46.294Z,12.00
2019-04-21T01:44:22.724Z,12.00
2019-04-21T01:46:42.808Z,11.90
2019-04-21T01:49:07.928Z,11.90
2019-04-21T01:51:57.938Z,11.90
2019-04-21T01:54:23.795Z,11.90
2019-04-21T01:56:55.670Z,11.90
2019-04-21T01:59:29.583Z,11.80
2019-04-21T02:02:08.104Z,11.80
2019-04-21T02:04:38.394Z,11.80
2019-04-21T02:07:07.401Z,11.80
2019-04-21T02:09:37.978Z,11.80
2019-04-21T02:12:10.558Z,11.80
2019-04-21T02:14:46.130Z,11.80
2019-04-21T02:17:14.519Z,11.80
2019-04-21T02:19:37.606Z,11.80
2019-04-21T02:22:04.837Z,11.90
2019-04-21T02:24:53.378Z,11.90
2019-04-21T02:27:16.078Z,11.90
2019-04-21T02:29:48.687Z,11.90
2019-04-21T02:35:12.408Z,11.90
2019-04-21T02:39:57.395Z,11.90
2019-04-21T02:42:27.684Z,11.90
2019-04-21T02:45:03.857Z,11.90
2019-04-21T02:47:40.628Z,11.90
2019-04-21T02:52:31.951Z,11.90
2019-04-21T02:54:55.650Z,11.80
2019-04-21T03:02:40.667Z,11.80
2019-04-21T03:07:52.065Z,11.80
2019-04-21T03:10:18.357Z,11.80
2019-04-21T03:12:45.885Z,11.80
2019-04-21T03:17:48.764Z,11.80
2019-04-21T03:20:18.378Z,11.80
2019-04-21T03:22:51.269Z,11.80
2019-04-21T03:38:00.267Z,11.80
2019-04-21T03:42:47.997Z,11.70
2019-04-21T03:45:23.698Z,11.70
2019-04-21T03:52:53.273Z,11.70
2019-04-21T04:03:23.555Z,11.70
2019-04-21T04:06:01.165Z,11.60
2019-04-21T04:08:44.747Z,11.60
2019-04-21T04:11:12.314Z,11.60
2019-04-21T04:13:36.775Z,11.70
2019-04-21T04:16:05.734Z,11.60
2019-04-21T04:18:39.438Z,11.70
2019-04-21T04:21:10.195Z,11.70
2019-04-21T04:26:02.761Z,11.70
2019-04-21T04:28:43.918Z,11.70
2019-04-21T04:31:05.656Z,11.70
2019-04-21T04:36:31.636Z,11.80
2019-04-21T04:41:24.962Z,11.80
2019-04-21T04:43:39.063Z,11.90
2019-04-21T04:48:35.281Z,11.90
2019-04-21T04:53:48.855Z,11.90
2019-04-21T04:56:12.321Z,11.80
2019-04-21T04:59:10.779Z,11.80
2019-04-21T05:01:26.764Z,11.80
2019-04-21T05:06:37.269Z,11.80
2019-04-21T05:11:39.798Z,11.90
2019-04-21T05:13:58.085Z,11.90
2019-04-21T05:16:36.649Z,11.90
2019-04-21T05:21:30.188Z,11.90
2019-04-21T05:23:48.513Z,11.90
2019-04-21T05:26:09.899Z,12.00
2019-04-21T05:28:42.015Z,12.00
2019-04-21T05:31:19.876Z,12.10
2019-04-21T05:34:03.035Z,12.10
2019-04-21T05:36:34.335Z,12.10
2019-04-21T05:39:18.805Z,12.20
2019-04-21T05:41:45.261Z,12.30
2019-04-21T05:44:27.792Z,12.40
2019-04-21T05:47:11.226Z,12.40
2019-04-21T05:49:26.486Z,12.40
2019-04-21T05:51:58.355Z,12.50
2019-04-21T05:54:39.024Z,12.60
2019-04-21T05:57:05.904Z,12.70
2019-04-21T05:59:35.813Z,12.70
2019-04-21T06:02:13.942Z,12.80
2019-04-21T06:05:01.973Z,12.90
2019-04-21T06:07:13.958Z,12.90
2019-04-21T06:09:46.802Z,13.10
2019-04-21T06:12:08.661Z,13.20
2019-04-21T06:14:45.006Z,13.20
2019-04-21T06:17:19.333Z,13.40
2019-04-21T06:19:49.635Z,13.50
2019-04-21T06:22:07.671Z,13.60
2019-04-21T06:25:06.934Z,13.70
2019-04-21T06:27:19.276Z,13.80
2019-04-21T06:29:43.662Z,13.90
2019-04-21T06:32:30.368Z,13.90
2019-04-21T06:35:01.138Z,14.00
2019-04-21T06:37:39.070Z,14.10
2019-04-21T06:40:03.151Z,14.10
2019-04-21T06:42:14.767Z,14.20
2019-04-21T06:44:53.776Z,14.20
2019-04-21T06:47:25.650Z,14.30
2019-04-21T06:49:42.795Z,14.40
2019-04-21T06:52:42.314Z,14.40
2019-04-21T06:57:21.753Z,14.60
2019-04-21T06:59:45.243Z,14.70
2019-04-21T07:02:36.262Z,14.80
2019-04-21T07:07:18.683Z,15.00
2019-04-21T07:09:56.961Z,15.10
2019-04-21T07:12:19.007Z,15.30
2019-04-21T07:14:54.681Z,15.30
2019-04-21T07:17:24.324Z,15.50
2019-04-21T07:19:55.178Z,15.50
2019-04-21T07:22:24.501Z,15.60
2019-04-21T07:25:00.300Z,15.70
2019-04-21T07:29:58.324Z,15.80
2019-04-21T07:32:27.793Z,15.90
2019-04-21T07:34:57.830Z,15.90
2019-04-21T07:37:23.981Z,15.90
2019-04-21T07:39:57.337Z,16.10
2019-04-21T07:42:18.624Z,16.10
2019-04-21T07:44:55.326Z,16.20
2019-04-21T07:47:27.178Z,16.20
2019-04-21T07:50:00.619Z,16.20
2019-04-21T07:52:42.980Z,16.30
2019-04-21T07:55:22.083Z,16.40
2019-04-21T07:57:35.454Z,16.50
2019-04-21T08:02:43.754Z,16.70
2019-04-21T08:05:16.061Z,16.70
2019-04-21T08:10:13.962Z,16.80
2019-04-21T08:12:37.957Z,16.80
2019-04-21T08:15:15.844Z,16.90
2019-04-21T08:17:42.618Z,17.00
2019-04-21T08:20:13.513Z,17.00
2019-04-21T08:22:47.921Z,17.00
2019-04-21T08:25:14.908Z,17.00
2019-04-21T08:27:50.881Z,17.10
2019-04-21T08:30:14.336Z,17.10
2019-04-21T08:32:51.484Z,17.30
2019-04-21T08:37:43.313Z,17.30
2019-04-21T08:40:16.739Z,17.40
2019-04-21T08:42:49.088Z,17.50
2019-04-21T08:45:25.498Z,17.50
2019-04-21T08:47:45.811Z,17.60
2019-04-21T08:50:15.139Z,17.60
2019-04-21T08:52:50.673Z,17.60
2019-04-21T08:55:22.554Z,17.60
2019-04-21T08:58:00.377Z,17.70
2019-04-21T09:00:26.373Z,17.70
2019-04-21T09:03:11.730Z,17.80
2019-04-21T09:05:37.845Z,17.90
2019-04-21T09:08:15.268Z,17.90
2019-04-21T09:10:39.922Z,18.00
2019-04-21T09:13:04.993Z,18.10
2019-04-21T09:15:34.882Z,18.30
2019-04-21T09:18:03.049Z,18.30
2019-04-21T09:20:46.163Z,18.30
2019-04-21T09:23:06.714Z,18.50
2019-04-21T09:28:11.207Z,18.60
2019-04-21T09:30:24.072Z,18.70
2019-04-21T09:32:56.100Z,18.80
2019-04-21T09:35:24.124Z,18.90
2019-04-21T09:37:58.849Z,19.00
2019-04-21T09:40:30.179Z,19.00
2019-04-21T09:42:59.510Z,19.10
2019-04-21T09:45:43.614Z,19.00
2019-04-21T09:48:17.051Z,19.10
2019-04-21T09:50:43.389Z,19.10
2019-04-21T09:53:20.915Z,19.10
2019-04-21T09:55:50.543Z,19.10
2019-04-21T09:58:21.728Z,19.20
2019-04-21T10:00:53.800Z,19.20
2019-04-21T10:03:16.310Z,19.20
2019-04-21T10:05:45.215Z,19.30
2019-04-21T10:08:14.509Z,19.30
2019-04-21T10:10:44.453Z,19.30
2019-04-21T10:13:13.308Z,19.50
2019-04-21T10:15:44.060Z,19.50
2019-04-21T10:18:15.132Z,19.50
2019-04-21T10:20:44.842Z,19.60
2019-04-21T10:23:13.696Z,19.50
2019-04-21T10:25:42.858Z,19.50
2019-04-21T10:28:12.789Z,19.50
2019-04-21T10:30:42.626Z,19.60
2019-04-21T10:33:12.530Z,19.60
2019-04-21T10:35:41.478Z,19.60
2019-04-21T10:38:20.500Z,19.70
2019-04-21T10:40:41.419Z,19.60
2019-04-21T10:43:12.404Z,19.70
2019-04-21T10:45:41.081Z,19.80
2019-04-21T10:48:10.804Z,19.80
2019-04-21T10:50:41.064Z,19.80
2019-04-21T10:53:18.690Z,19.80
2019-04-21T10:56:01.483Z,19.80
2019-04-21T10:58:22.688Z,19.80
2019-04-21T11:00:54.152Z,19.90
2019-04-21T11:03:25.118Z,19.90
2019-04-21T11:05:58.904Z,20.00
2019-04-21T11:08:32.580Z,20.10
2019-04-21T11:10:58.342Z,20.30
2019-04-21T11:13:28.317Z,20.30
2019-04-21T11:15:57.303Z,20.30
2019-04-21T11:18:26.080Z,20.20
2019-04-21T11:20:55.258Z,20.30
2019-04-21T11:23:25.027Z,20.30
2019-04-21T11:25:53.979Z,20.30
2019-04-21T11:28:22.985Z,20.30
2019-04-21T11:30:53.088Z,20.30
2019-04-21T11:33:22.838Z,20.30
2019-04-21T11:35:53.066Z,20.20
2019-04-21T11:38:57.081Z,20.10
2019-04-21T11:41:11.818Z,20.10
2019-04-21T11:43:41.345Z,20.00
2019-04-21T11:46:10.833Z,20.00
2019-04-21T11:48:40.009Z,20.00
2019-04-21T11:51:09.028Z,20.00
2019-04-21T11:53:39.116Z,20.00
2019-04-21T11:56:09.013Z,20.10
2019-04-21T11:58:37.981Z,20.10
2019-04-21T12:01:07.683Z,20.10
2019-04-21T12:03:37.745Z,20.20
2019-04-21T12:06:06.668Z,20.20
2019-04-21T12:08:42.281Z,20.20
2019-04-21T12:11:07.266Z,20.20
2019-04-21T12:13:36.255Z,20.10
2019-04-21T12:16:05.463Z,20.10
2019-04-21T12:18:34.353Z,20.10
2019-04-21T12:21:03.326Z,20.10
2019-04-21T12:23:32.373Z,20.10
2019-04-21T12:26:01.496Z,20.10
2019-04-21T12:28:30.483Z,20.10
2019-04-21T12:31:00.184Z,20.10
2019-04-21T12:33:34.166Z,20.00
2019-04-21T12:36:04.007Z,20.10
2019-04-21T12:38:42.684Z,20.10
2019-04-21T12:41:04.540Z,20.10
2019-04-21T12:43:34.778Z,20.10
2019-04-21T12:46:04.300Z,20.10
2019-04-21T12:48:33.818Z,20.20
2019-04-21T12:51:03.879Z,20.30
2019-04-21T12:53:33.967Z,20.30
2019-04-21T12:56:02.843Z,20.40
2019-04-21T12:58:31.584Z,20.60
2019-04-21T13:01:00.961Z,20.70
2019-04-21T13:03:30.381Z,20.90
2019-04-21T13:05:59.185Z,21.00
2019-04-21T13:08:29.195Z,21.30
2019-04-21T13:10:58.331Z,21.60
2019-04-21T13:13:28.157Z,21.80
2019-04-21T13:15:57.712Z,21.90
2019-04-21T13:18:27.050Z,22.00
2019-04-21T13:20:56.097Z,22.10
2019-04-21T13:23:24.975Z,22.30
2019-04-21T13:25:54.120Z,22.50
2019-04-21T13:28:23.037Z,22.90
2019-04-21T13:30:51.718Z,23.20
2019-04-21T13:33:20.970Z,23.30
2019-04-21T13:35:50.893Z,23.20
2019-04-21T13:38:31.036Z,23.30
2019-04-21T13:41:11.917Z,23.20
2019-04-21T13:43:25.313Z,23.20
2019-04-21T13:45:54.150Z,23.30
2019-04-21T13:48:24.278Z,23.40
2019-04-21T13:50:53.501Z,23.40
2019-04-21T13:53:22.759Z,23.50
2019-04-21T13:55:52.897Z,23.50
2019-04-21T13:58:22.126Z,23.50
2019-04-21T14:00:52.377Z,23.50
2019-04-21T14:03:23.429Z,23.50
2019-04-21T14:05:51.785Z,23.60
2019-04-21T14:08:21.031Z,23.70
2019-04-21T14:10:51.402Z,23.80
2019-04-21T14:13:20.472Z,23.80
2019-04-21T14:15:51.632Z,23.80
2019-04-21T14:18:20.625Z,23.90
2019-04-21T14:20:49.478Z,24.60
2019-04-21T14:23:28.636Z,25.30
2019-04-21T14:25:49.978Z,25.30
2019-04-21T14:28:19.899Z,25.20
2019-04-21T14:30:50.337Z,25.50
2019-04-21T14:33:20.469Z,25.50
2019-04-21T14:35:50.629Z,25.30
2019-04-21T14:38:20.584Z,24.80
2019-04-21T14:40:50.352Z,24.50
2019-04-21T14:43:20.422Z,24.30
2019-04-21T14:45:52.615Z,24.60
2019-04-21T14:48:39.408Z,25.00
2019-04-21T14:51:11.159Z,24.80
2019-04-21T14:54:01.740Z,24.70
2019-04-21T14:56:31.301Z,24.40
2019-04-21T14:59:01.324Z,24.10
2019-04-21T15:01:31.541Z,23.90
2019-04-21T15:04:01.550Z,23.70
2019-04-21T15:06:31.552Z,23.50
2019-04-21T15:09:00.878Z,23.30
2019-04-21T15:11:29.919Z,23.20
2019-04-21T15:13:59.783Z,23.00
2019-04-21T15:16:29.095Z,22.90
2019-04-21T15:18:58.905Z,22.70
2019-04-21T15:21:29.014Z,22.60
2019-04-21T15:23:58.173Z,22.50
2019-04-21T15:26:28.334Z,22.40
2019-04-21T15:28:57.223Z,22.20
2019-04-21T15:31:30.247Z,22.00
2019-04-21T15:33:57.076Z,21.90
2019-04-21T15:36:27.109Z,21.70
2019-04-21T15:38:56.178Z,21.60
2019-04-21T15:41:24.997Z,21.50
2019-04-21T15:43:54.378Z,21.40
2019-04-21T15:46:24.728Z,21.30
2019-04-21T15:48:55.030Z,21.20
2019-04-21T15:51:23.988Z,21.10
2019-04-21T15:53:52.965Z,20.90
2019-04-21T15:56:26.860Z,20.70
2019-04-21T15:59:01.016Z,20.60
2019-04-21T16:01:40.778Z,20.30
2019-04-21T16:04:10.691Z,20.10
2019-04-21T16:06:39.731Z,20.00
2019-04-21T16:09:16.136Z,20.00
2019-04-21T16:11:40.180Z,19.90
2019-04-21T16:14:10.165Z,19.80
2019-04-21T16:16:39.278Z,19.70
2019-04-21T16:19:08.307Z,19.50
2019-04-21T16:21:40.599Z,19.40
2019-04-21T16:24:08.735Z,19.30
2019-04-21T16:26:38.429Z,19.20
2019-04-21T16:29:07.230Z,19.20
2019-04-21T16:31:36.365Z,19.10
2019-04-21T16:34:05.228Z,19.00
2019-04-21T16:36:33.972Z,19.00
2019-04-21T16:39:02.744Z,18.90
2019-04-21T16:41:32.070Z,18.80
2019-04-21T16:44:01.018Z,18.80
2019-04-21T16:46:29.767Z,18.70
2019-04-21T16:48:59.908Z,18.70
2019-04-21T16:51:28.830Z,18.70
2019-04-21T16:53:59.872Z,18.60
2019-04-21T16:56:31.130Z,18.50
2019-04-21T16:59:02.807Z,18.50
2019-04-21T17:01:32.426Z,18.40
2019-04-21T17:04:02.346Z,18.40
2019-04-21T17:06:31.423Z,18.30
2019-04-21T17:09:00.958Z,18.30
2019-04-21T17:11:34.704Z,18.20
2019-04-21T17:14:00.665Z,18.20
2019-04-21T17:17:00.323Z,18.10
2019-04-21T17:19:12.786Z,18.00
2019-04-21T17:21:30.723Z,18.00
2019-04-21T17:24:02.001Z,18.00
2019-04-21T17:26:31.369Z,17.90
2019-04-21T17:29:02.549Z,17.90
2019-04-21T17:31:31.405Z,17.90
2019-04-21T17:34:09.519Z,17.90
2019-04-21T17:36:31.038Z,17.80
2019-04-21T17:39:00.171Z,17.80
2019-04-21T17:41:36.427Z,17.70
2019-04-21T17:44:00.376Z,17.70
2019-04-21T17:46:38.624Z,17.60
2019-04-21T17:49:01.016Z,17.60
2019-04-21T17:51:55.117Z,17.60
2019-04-21T17:54:32.221Z,17.50
2019-04-21T17:57:16.246Z,17.50
2019-04-21T18:02:23.518Z,17.40
2019-04-21T18:04:49.398Z,17.30
2019-04-21T18:07:29.064Z,17.30
2019-04-21T18:10:03.391Z,17.30
2019-04-21T18:12:24.950Z,17.20
2019-04-21T18:14:53.090Z,17.20
2019-04-21T18:17:14.055Z,17.10
2019-04-21T18:19:46.998Z,17.10
2019-04-21T18:22:37.104Z,17.00
2019-04-21T18:25:07.060Z,17.00
2019-04-21T18:27:34.439Z,17.00
2019-04-21T18:30:06.468Z,16.90
2019-04-21T18:32:39.176Z,16.90
2019-04-21T18:35:17.073Z,16.90
2019-04-21T18:38:08.368Z,16.80
2019-04-21T18:40:34.831Z,16.80
2019-04-21T18:43:38.360Z,16.80
2019-04-21T18:46:04.807Z,16.80
2019-04-21T18:48:31.541Z,16.70
2019-04-21T18:51:04.649Z,16.70
2019-04-21T18:53:46.197Z,16.70
2019-04-21T18:56:05.672Z,16.60
2019-04-21T18:58:30.877Z,16.60
2019-04-21T19:01:07.545Z,16.60
2019-04-21T19:03:38.943Z,16.50
2019-04-21T19:06:08.782Z,16.60
2019-04-21T19:08:53.400Z,16.50
2019-04-21T19:11:18.883Z,16.50
2019-04-21T19:14:31.695Z,16.40
2019-04-21T19:19:38.258Z,16.40
2019-04-21T19:21:42.393Z,16.30
2019-04-21T19:24:18.563Z,16.30
2019-04-21T19:29:19.697Z,16.20
2019-04-21T19:31:46.311Z,16.20
2019-04-21T19:34:07.192Z,16.10
2019-04-21T19:36:28.938Z,16.10
2019-04-21T19:39:06.502Z,16.10
2019-04-21T19:41:41.143Z,16.20
2019-04-21T19:44:14.256Z,16.10
2019-04-21T19:46:43.532Z,16.10
2019-04-21T19:49:22.739Z,16.10
2019-04-21T19:51:40.564Z,16.10
2019-04-21T19:54:09.345Z,16.00
2019-04-21T19:56:30.250Z,16.10
2019-04-21T19:58:59.132Z,16.00
2019-04-21T20:01:27.977Z,16.00
2019-04-21T20:04:00.530Z,16.00
2019-04-21T20:06:44.007Z,15.90
2019-04-21T20:09:19.031Z,15.90
2019-04-21T20:11:42.628Z,15.90
2019-04-21T20:16:44.175Z,15.80
2019-04-21T20:19:05.954Z,15.80
2019-04-21T20:21:32.821Z,15.80
2019-04-21T20:24:07.511Z,15.80
2019-04-21T20:26:39.099Z,15.80
2019-04-21T20:29:20.812Z,15.70
2019-04-21T20:31:46.970Z,15.80
2019-04-21T20:34:28.371Z,15.80
2019-04-21T20:36:56.914Z,15.80
2019-04-21T20:39:12.887Z,15.80
2019-04-21T20:41:49.630Z,15.80
2019-04-21T20:44:28.206Z,15.80
2019-04-21T20:46:54.530Z,15.80
2019-04-21T20:49:19.227Z,15.80
2019-04-21T20:52:01.712Z,15.80
2019-04-21T20:54:25.704Z,15.80
2019-04-21T20:57:00.464Z,15.80
2019-04-21T20:59:25.329Z,15.80
2019-04-21T21:01:55.176Z,15.80
2019-04-21T21:04:22.996Z,15.70
2019-04-21T21:07:01.419Z,15.80
2019-04-21T21:09:25.637Z,15.80
2019-04-21T21:12:15.031Z,15.80
2019-04-21T21:14:27.970Z,15.80
2019-04-21T21:17:03.269Z,15.80
2019-04-21T21:19:35.139Z,15.80
2019-04-21T21:21:56.369Z,15.80
2019-04-21T21:24:36.551Z,15.80
2019-04-21T21:26:58.092Z,15.80
2019-04-21T21:32:08.493Z,15.80
2019-04-21T21:34:32.993Z,15.80
2019-04-21T21:37:15.895Z,15.80
2019-04-21T21:39:40.421Z,15.80
2019-04-21T21:41:50.990Z,15.80
2019-04-21T21:44:21.261Z,15.80
2019-04-21T21:47:03.721Z,15.80
2019-04-21T21:49:34.911Z,15.80
2019-04-21T21:52:01.973Z,15.80
2019-04-21T21:54:19.995Z,15.80
2019-04-21T21:56:48.695Z,15.80
2019-04-21T21:59:22.814Z,15.70
2019-04-21T22:01:52.233Z,15.70
2019-04-21T22:04:24.829Z,15.70
2019-04-21T22:06:57.558Z,15.70
2019-04-21T22:09:19.476Z,15.70
2019-04-21T22:11:53.561Z,15.70
2019-04-21T22:14:25.836Z,15.70
2019-04-21T22:17:07.685Z,15.70
2019-04-21T22:19:41.716Z,15.70
2019-04-21T22:22:09.738Z,15.70
2019-04-21T22:24:38.895Z,15.70
2019-04-21T22:26:52.421Z,15.70
2019-04-21T22:29:21.458Z,15.70
2019-04-21T22:31:52.761Z,15.70
2019-04-21T22:34:27.700Z,15.60
2019-04-21T22:37:01.287Z,15.60
2019-04-21T22:39:43.669Z,15.60
2019-04-21T22:42:01.900Z,15.60
2019-04-21T22:44:22.756Z,15.60
2019-04-21T22:47:01.461Z,15.60
2019-04-21T22:49:23.741Z,15.60
2019-04-21T22:51:53.780Z,15.50
2019-04-21T22:54:29.614Z,15.50
2019-04-21T22:57:01.598Z,15.30
2019-04-21T22:59:24.910Z,15.40
2019-04-21T23:01:55.776Z,15.30
2019-04-21T23:04:32.611Z,15.30
2019-04-21T23:07:00.054Z,15.10
2019-04-21T23:09:26.662Z,15.20
2019-04-21T23:11:56.628Z,15.10
2019-04-21T23:14:25.904Z,15.00
2019-04-21T23:17:04.432Z,15.00
2019-04-21T23:19:38.872Z,14.90
2019-04-21T23:22:14.620Z,15.00
2019-04-21T23:24:45.540Z,14.90
2019-04-21T23:27:11.788Z,14.90
2019-04-21T23:29:52.452Z,14.80
2019-04-21T23:32:13.128Z,14.80
2019-04-21T23:34:33.776Z,14.80
2019-04-21T23:37:06.606Z,14.80
2019-04-21T23:39:31.970Z,14.70
2019-04-21T23:42:02.384Z,14.70
2019-04-21T23:44:32.931Z,14.50
2019-04-21T23:47:05.339Z,14.50
2019-04-21T23:49:43.250Z,14.50
2019-04-21T23:52:06.897Z,14.40
2019-04-21T23:54:33.411Z,14.40
2019-04-21T23:57:10.995Z,14.40
2019-04-21T23:59:40.858Z,14.40
